Ventura — ZCDT2 — position and weather

sailwx.info

Track history (hours):
 
Tides and Currents Weather Stations Pressure Air Temp Water Temp Dewpoint Dewpoint Depression Visibility Wind Speed Wind Dir Waves Ship Positions

Ventura

Last reported at 2016-Aug-28 20:33 UTC. Time now 2016-Aug-28 20:37 UTC.
Position N 49°47' W 003°00'.

Length 288 m.

Type: Passenger vessel. MMSI: 310562000.

Date/timePositionNaut miles runAvg speedWind from/ knotsBaromVisibWave heightAir tempDewpointWater temp
2016-Aug-28 20:33N 49°47' W 003°00'1817.7
2016-Aug-28 19:33N 49°37' W 003°22'6017.7
2016-Aug-28 16:10N 49°01' W 004°36'1118.0
2016-Aug-28 15:33N 48°54' W 004°49'1818.3
2016-Aug-28 14:33N 48°42' W 005°10'1919.2
2016-Aug-28 13:33N 48°27' W 005°29'14118.7
2016-Aug-28 06:00N 46°24' W 007°12'38518.7 270 / 381020.610.8 3.520.013.620.2
2016-Aug-27 09:26N 40°17' W 009°50'1919.4
2016-Aug-27 08:27N 39°58' W 009°51'2419.2
2016-Aug-27 07:11N 39°33' W 009°52'1219.0
2016-Aug-27 06:33N 39°22' W 009°51'3819.1
2016-Aug-27 04:33N 38°44' W 009°52'1919.0
2016-Aug-27 03:33N 38°25' W 009°45'1918.9
2016-Aug-27 02:33N 38°07' W 009°38'1919.0
2016-Aug-27 01:33N 37°49' W 009°33'1918.9
2016-Aug-27 00:33N 37°30' W 009°28'1919.3
2016-Aug-26 23:33N 37°11' W 009°23'1918.7
2016-Aug-26 22:33N 36°53' W 009°19'4018.1
2016-Aug-26 20:21N 36°35' W 008°34'14818.9
2016-Aug-26 12:30N 35°58' W 005°36'1414.7
2016-Aug-26 11:34N 36°07' W 005°23'2 0.3
2016-Aug-26 04:33N 36°05' W 005°21'15819.7
2016-Aug-25 20:33N 36°27' W 002°07'6319.9
2016-Aug-25 17:22N 36°43' W 000°51'10020.0
2016-Aug-25 12:21N 37°08' E 001°11'1720.9
2016-Aug-25 11:33N 37°12' E 001°31'2220.9
2016-Aug-25 10:30N 37°18' E 001°58'2421.3
2016-Aug-25 09:21N 37°24' E 002°27'1721.5
2016-Aug-25 08:33N 37°28' E 002°48'10720.5
2016-Aug-25 03:19N 37°55' E 004°59'18918.9
2016-Aug-24 17:19N 38°48' E 008°50'1215.0
2016-Aug-24 16:31N 38°56' E 009°03'1414.0
2016-Aug-24 15:33N 39°08' E 009°08'4 4.4
2016-Aug-24 14:33N 39°13' E 009°06'0 0.0
2016-Aug-24 13:27N 39°13' E 009°06'0 0.0
2016-Aug-24 12:30N 39°13' E 009°06'0 0.0
2016-Aug-24 11:33N 39°13' E 009°06'0 0.0
2016-Aug-24 10:33N 39°13' E 009°06'0 0.0
2016-Aug-24 09:34N 39°13' E 009°06'0 0.0
2016-Aug-24 08:33N 39°13' E 009°06'0 0.0
2016-Aug-24 07:33N 39°13' E 009°06'0 0.2
2016-Aug-24 06:33N 39°12' E 009°07'2613.1
2016-Aug-24 04:33N 38°58' E 009°35'22220.2
2016-Aug-23 17:33N 40°33' E 013°57'2020.0
2016-Aug-23 16:33N 40°46' E 014°16'4 3.2
2016-Aug-23 15:19N 40°50' E 014°16'0 0.0
2016-Aug-23 14:07N 40°50' E 014°16'0 0.0
2016-Aug-23 13:31N 40°50' E 014°16'0 0.0
2016-Aug-23 12:31N 40°50' E 014°16'0 0.0
2016-Aug-23 11:31N 40°50' E 014°16'0 0.0
2016-Aug-23 10:31N 40°50' E 014°16'0 0.0
2016-Aug-23 09:19N 40°50' E 014°16'0 0.0
2016-Aug-23 08:31N 40°50' E 014°16'0 0.0
2016-Aug-23 07:19N 40°50' E 014°16'0 0.0
2016-Aug-23 06:13N 40°50' E 014°16'0 0.0
2016-Aug-23 05:25N 40°50' E 014°16'1 1.6
2016-Aug-23 04:33N 40°50' E 014°17'8 8.1
2016-Aug-23 03:33N 40°43' E 014°11'161 6.3
2016-Aug-22 02:07N 42°08' E 011°08'1119.1
2016-Aug-22 01:33N 42°11' E 010°54'1818.7
2016-Aug-22 00:34N 42°22' E 010°34'2519.2
2016-Aug-21 23:14N 42°39' E 010°08'1319.3
2016-Aug-21 22:33N 42°47' E 009°55'2019.7
2016-Aug-21 21:33N 43°02' E 009°36'1818.2
2016-Aug-21 20:33N 43°08' E 009°13'1919.3
2016-Aug-21 19:33N 43°12' E 008°47'2019.5
2016-Aug-21 18:33N 43°15' E 008°20'2019.6
2016-Aug-21 17:33N 43°19' E 007°54'1818.4
2016-Aug-21 16:33N 43°23' E 007°29'1817.6
2016-Aug-21 15:33N 43°26' E 007°06'7 6.7
2016-Aug-21 14:32N 43°32' E 007°01'0 0.0
2016-Aug-21 13:32N 43°32' E 007°01'0 0.0
2016-Aug-21 12:32N 43°32' E 007°01'0 0.0
2016-Aug-21 11:32N 43°32' E 007°01'0 0.0
2016-Aug-21 10:32N 43°32' E 007°01'0 0.0
2016-Aug-21 09:32N 43°32' E 007°01'0 0.0
2016-Aug-21 08:32N 43°32' E 007°01'0 0.0
2016-Aug-21 07:32N 43°32' E 007°01'0 0.0
2016-Aug-21 06:32N 43°32' E 007°01'0 0.1
2016-Aug-21 05:33N 43°32' E 007°01'3315.2
2016-Aug-21 03:23N 43°02' E 006°42'2219.5
2016-Aug-21 02:16N 42°49' E 006°19'15119.4
2016-Aug-20 18:29N 41°40' E 003°17'1819.7
2016-Aug-20 17:33N 41°32' E 002°55'1628.5
2016-Aug-20 17:00N 41°24' E 002°36'3 7.3 070 / 321014.610.8 3.524.818.925.8
2016-Aug-20 16:34N 41°22' E 002°32'1717.0
2016-Aug-20 15:34N 41°15' E 002°12'6 6.1
2016-Aug-20 14:31N 41°21' E 002°10'0 0.0
2016-Aug-20 13:31N 41°21' E 002°10'0 0.0
2016-Aug-20 12:25N 41°21' E 002°10'0 0.0
2016-Aug-20 11:25N 41°21' E 002°10'0 0.0
2016-Aug-20 10:31N 41°21' E 002°10'0 0.0
2016-Aug-20 09:31N 41°21' E 002°10'0 0.0
2016-Aug-20 08:31N 41°21' E 002°10'0 0.0
2016-Aug-20 07:31N 41°21' E 002°10'0 0.1
2016-Aug-20 05:33N 41°21' E 002°10'6 5.8
2016-Aug-20 04:32N 41°15' E 002°10'1717.1
2016-Aug-20 03:33N 41°00' E 002°00'1716.9
2016-Aug-20 02:33N 40°45' E 001°50'1716.7
2016-Aug-20 01:33N 40°30' E 001°40'1716.6
2016-Aug-20 00:33N 40°16' E 001°30'1616.3
2016-Aug-19 23:33N 40°01' E 001°20'1615.9
2016-Aug-19 22:33N 39°47' E 001°11'1715.8
2016-Aug-19 21:27N 39°31' E 001°00'1516.1
2016-Aug-19 20:33N 39°18' E 000°52'1615.9
2016-Aug-19 19:33N 39°04' E 000°42'1615.8
2016-Aug-19 18:33N 38°50' E 000°33'1616.2
2016-Aug-19 17:33N 38°36' E 000°23'1616.2
2016-Aug-19 16:33N 38°22' E 000°13'1716.4
2016-Aug-19 15:33N 38°08' E 000°01'1513.8
2016-Aug-19 14:29N 37°56' W 000°10'1616.7
2016-Aug-19 13:33N 37°44' W 000°22'1616.5
2016-Aug-19 12:33N 37°31' W 000°34'1716.6
2016-Aug-19 11:33N 37°20' W 000°50'3416.7
2016-Aug-19 09:31N 36°57' W 001°22'1616.7
2016-Aug-19 08:32N 36°47' W 001°37'3416.3
2016-Aug-19 06:26N 36°22' W 002°06'1416.0
2016-Aug-19 05:33N 36°20' W 002°24'2016.3
2016-Aug-19 04:21N 36°17' W 002°48'1315.9
2016-Aug-19 03:33N 36°16' W 003°03'1616.5
2016-Aug-19 02:33N 36°14' W 003°24'6816.3
2016-Aug-18 22:24N 36°05' W 004°47'1416.1
2016-Aug-18 21:33N 36°01' W 005°04'1515.7
2016-Aug-18 20:34N 35°58' W 005°22'  
Track history (hours):
 
Tides and Currents Weather Stations Pressure Air Temp Water Temp Dewpoint Dewpoint Depression Visibility Wind Speed Wind Dir Waves Ship Positions

Ventura

Last reported at 2016-Aug-28 20:33 UTC. Time now 2016-Aug-28 20:37 UTC.
Position N 49°47' W 003°00'.

Length 288 m.

Type: Passenger vessel. MMSI: 310562000.

Date/timePositionNaut miles runAvg speedWind from/ knotsBaromVisibWave heightAir tempDewpointWater temp
2016-Aug-28 20:33N 49°47' W 003°00'1817.7
2016-Aug-28 19:33N 49°37' W 003°22'6017.7
2016-Aug-28 16:10N 49°01' W 004°36'1118.0
2016-Aug-28 15:33N 48°54' W 004°49'1818.3
2016-Aug-28 14:33N 48°42' W 005°10'1919.2
2016-Aug-28 13:33N 48°27' W 005°29'14118.7
2016-Aug-28 06:00N 46°24' W 007°12'38518.7 270 / 381020.610.8 3.520.013.620.2
2016-Aug-27 09:26N 40°17' W 009°50'1919.4
2016-Aug-27 08:27N 39°58' W 009°51'2419.2
2016-Aug-27 07:11N 39°33' W 009°52'1219.0
2016-Aug-27 06:33N 39°22' W 009°51'3819.1
2016-Aug-27 04:33N 38°44' W 009°52'1919.0
2016-Aug-27 03:33N 38°25' W 009°45'1918.9
2016-Aug-27 02:33N 38°07' W 009°38'1919.0
2016-Aug-27 01:33N 37°49' W 009°33'1918.9
2016-Aug-27 00:33N 37°30' W 009°28'1919.3
2016-Aug-26 23:33N 37°11' W 009°23'1918.7
2016-Aug-26 22:33N 36°53' W 009°19'4018.1
2016-Aug-26 20:21N 36°35' W 008°34'14818.9
2016-Aug-26 12:30N 35°58' W 005°36'1414.7
2016-Aug-26 11:34N 36°07' W 005°23'2 0.3
2016-Aug-26 04:33N 36°05' W 005°21'15819.7
2016-Aug-25 20:33N 36°27' W 002°07'6319.9
2016-Aug-25 17:22N 36°43' W 000°51'10020.0
2016-Aug-25 12:21N 37°08' E 001°11'1720.9
2016-Aug-25 11:33N 37°12' E 001°31'2220.9
2016-Aug-25 10:30N 37°18' E 001°58'2421.3
2016-Aug-25 09:21N 37°24' E 002°27'1721.5
2016-Aug-25 08:33N 37°28' E 002°48'10720.5
2016-Aug-25 03:19N 37°55' E 004°59'18918.9
2016-Aug-24 17:19N 38°48' E 008°50'1215.0
2016-Aug-24 16:31N 38°56' E 009°03'1414.0
2016-Aug-24 15:33N 39°08' E 009°08'4 4.4
2016-Aug-24 14:33N 39°13' E 009°06'0 0.0
2016-Aug-24 13:27N 39°13' E 009°06'0 0.0
2016-Aug-24 12:30N 39°13' E 009°06'0 0.0
2016-Aug-24 11:33N 39°13' E 009°06'0 0.0
2016-Aug-24 10:33N 39°13' E 009°06'0 0.0
2016-Aug-24 09:34N 39°13' E 009°06'0 0.0
2016-Aug-24 08:33N 39°13' E 009°06'0 0.0
2016-Aug-24 07:33N 39°13' E 009°06'0 0.2
2016-Aug-24 06:33N 39°12' E 009°07'2613.1
2016-Aug-24 04:33N 38°58' E 009°35'22220.2
2016-Aug-23 17:33N 40°33' E 013°57'2020.0
2016-Aug-23 16:33N 40°46' E 014°16'4 3.2
2016-Aug-23 15:19N 40°50' E 014°16'0 0.0
2016-Aug-23 14:07N 40°50' E 014°16'0 0.0
2016-Aug-23 13:31N 40°50' E 014°16'0 0.0
2016-Aug-23 12:31N 40°50' E 014°16'0 0.0
2016-Aug-23 11:31N 40°50' E 014°16'0 0.0
2016-Aug-23 10:31N 40°50' E 014°16'0 0.0
2016-Aug-23 09:19N 40°50' E 014°16'0 0.0
2016-Aug-23 08:31N 40°50' E 014°16'0 0.0
2016-Aug-23 07:19N 40°50' E 014°16'0 0.0
2016-Aug-23 06:13N 40°50' E 014°16'0 0.0
2016-Aug-23 05:25N 40°50' E 014°16'1 1.6
2016-Aug-23 04:33N 40°50' E 014°17'8 8.1
2016-Aug-23 03:33N 40°43' E 014°11'161 6.3
2016-Aug-22 02:07N 42°08' E 011°08'1119.1
2016-Aug-22 01:33N 42°11' E 010°54'1818.7
2016-Aug-22 00:34N 42°22' E 010°34'2519.2
2016-Aug-21 23:14N 42°39' E 010°08'1319.3
2016-Aug-21 22:33N 42°47' E 009°55'2019.7
2016-Aug-21 21:33N 43°02' E 009°36'1818.2
2016-Aug-21 20:33N 43°08' E 009°13'1919.3
2016-Aug-21 19:33N 43°12' E 008°47'2019.5
2016-Aug-21 18:33N 43°15' E 008°20'2019.6
2016-Aug-21 17:33N 43°19' E 007°54'1818.4
2016-Aug-21 16:33N 43°23' E 007°29'1817.6
2016-Aug-21 15:33N 43°26' E 007°06'7 6.7
2016-Aug-21 14:32N 43°32' E 007°01'0 0.0
2016-Aug-21 13:32N 43°32' E 007°01'0 0.0
2016-Aug-21 12:32N 43°32' E 007°01'0 0.0
2016-Aug-21 11:32N 43°32' E 007°01'0 0.0
2016-Aug-21 10:32N 43°32' E 007°01'0 0.0
2016-Aug-21 09:32N 43°32' E 007°01'0 0.0
2016-Aug-21 08:32N 43°32' E 007°01'0 0.0
2016-Aug-21 07:32N 43°32' E 007°01'0 0.0
2016-Aug-21 06:32N 43°32' E 007°01'0 0.1
2016-Aug-21 05:33N 43°32' E 007°01'3315.2
2016-Aug-21 03:23N 43°02' E 006°42'2219.5
2016-Aug-21 02:16N 42°49' E 006°19'15119.4
2016-Aug-20 18:29N 41°40' E 003°17'1819.7
2016-Aug-20 17:33N 41°32' E 002°55'1628.5
2016-Aug-20 17:00N 41°24' E 002°36'3 7.3 070 / 321014.610.8 3.524.818.925.8
2016-Aug-20 16:34N 41°22' E 002°32'1717.0
2016-Aug-20 15:34N 41°15' E 002°12'6 6.1
2016-Aug-20 14:31N 41°21' E 002°10'0 0.0
2016-Aug-20 13:31N 41°21' E 002°10'0 0.0
2016-Aug-20 12:25N 41°21' E 002°10'0 0.0
2016-Aug-20 11:25N 41°21' E 002°10'0 0.0
2016-Aug-20 10:31N 41°21' E 002°10'0 0.0
2016-Aug-20 09:31N 41°21' E 002°10'0 0.0
2016-Aug-20 08:31N 41°21' E 002°10'0 0.0
2016-Aug-20 07:31N 41°21' E 002°10'0 0.1
2016-Aug-20 05:33N 41°21' E 002°10'6 5.8
2016-Aug-20 04:32N 41°15' E 002°10'1717.1
2016-Aug-20 03:33N 41°00' E 002°00'1716.9
2016-Aug-20 02:33N 40°45' E 001°50'1716.7
2016-Aug-20 01:33N 40°30' E 001°40'1716.6
2016-Aug-20 00:33N 40°16' E 001°30'1616.3
2016-Aug-19 23:33N 40°01' E 001°20'1615.9
2016-Aug-19 22:33N 39°47' E 001°11'1715.8
2016-Aug-19 21:27N 39°31' E 001°00'1516.1
2016-Aug-19 20:33N 39°18' E 000°52'1615.9
2016-Aug-19 19:33N 39°04' E 000°42'1615.8
2016-Aug-19 18:33N 38°50' E 000°33'1616.2
2016-Aug-19 17:33N 38°36' E 000°23'1616.2
2016-Aug-19 16:33N 38°22' E 000°13'1716.4
2016-Aug-19 15:33N 38°08' E 000°01'1513.8
2016-Aug-19 14:29N 37°56' W 000°10'1616.7
2016-Aug-19 13:33N 37°44' W 000°22'1616.5
2016-Aug-19 12:33N 37°31' W 000°34'1716.6
2016-Aug-19 11:33N 37°20' W 000°50'3416.7
2016-Aug-19 09:31N 36°57' W 001°22'1616.7
2016-Aug-19 08:32N 36°47' W 001°37'3416.3
2016-Aug-19 06:26N 36°22' W 002°06'1416.0
2016-Aug-19 05:33N 36°20' W 002°24'2016.3
2016-Aug-19 04:21N 36°17' W 002°48'1315.9
2016-Aug-19 03:33N 36°16' W 003°03'1616.5
2016-Aug-19 02:33N 36°14' W 003°24'6816.3
2016-Aug-18 22:24N 36°05' W 004°47'1416.1
2016-Aug-18 21:33N 36°01' W 005°04'1515.7
2016-Aug-18 20:34N 35°58' W 005°22'  

Dump ship's entire track history